Wetterdaten: aktuell Freitag, 24.11.2017 11:45
Datum Zeit Wetterhtte Helligkeit Boden -10cm Boden 5cm Temp S Luftfeuchte Luftdruck Regen Wind Richtung Richtung Sonnenschein UV Taupunkt Windchill Windben
24.11.2017 11:45 12,7 C 22,0 C 8,0 C 12,0 C 15,3 C 75 % 1010,7 hPa 0,0 l/m 12,7 km/h S 184 0 min 0,5 UV-I 8,4 C 9,3 C 24,4 km/h
24.11.2017 11:40 12,8 C 13,0 C 8,0 C 12,0 C 15,8 C 76 % 1010,7 hPa 0,0 l/m 12,5 km/h S-SW 206 0 min 0,6 UV-I 8,7 C 9,5 C 17,8 km/h
24.11.2017 11:35 12,7 C 14,6 C 7,9 C 11,9 C 16,6 C 76 % 1011,1 hPa 0,0 l/m 14,1 km/h S-SO 161 0 min 0,6 UV-I 8,6 C 8,7 C 19,6 km/h
24.11.2017 11:30 12,7 C 30,6 C 7,9 C 11,8 C 18,1 C 76 % 1011,1 hPa 0,0 l/m 12,5 km/h SW 229 5 min 0,6 UV-I 8,6 C 9,4 C 13,3 km/h
24.11.2017 11:25 12,6 C 39,7 C 7,9 C 11,9 C 18,6 C 76 % 1011,1 hPa 0,0 l/m 12,7 km/h O-NO 71 5 min 0,5 UV-I 8,5 C 9,2 C 37,7 km/h
24.11.2017 11:20 12,6 C 18,7 C 7,9 C 11,7 C 16,9 C 77 % 1011,1 hPa 0,0 l/m 12,7 km/h S-SO 161 0 min 0,6 UV-I 8,7 C 9,2 C 20,7 km/h
24.11.2017 11:15 12,4 C 32,1 C 7,8 C 11,6 C 19,0 C 77 % 1011,0 hPa 0,0 l/m 9,8 km/h W-SW 251 5 min 0,6 UV-I 8,5 C 10,4 C 11,7 km/h
24.11.2017 11:10 12,3 C 33,9 C 7,8 C 11,5 C 19,3 C 77 % 1011,0 hPa 0,0 l/m 8,2 km/h W-SW 251 5 min 0,6 UV-I 8,4 C 11,1 C 10,6 km/h
24.11.2017 11:05 12,2 C 34,1 C 7,8 C 11,5 C 18,0 C 77 % 1011,0 hPa 0,0 l/m 8,0 km/h W-SW 251 5 min 0,6 UV-I 8,3 C 11,2 C 6,4 km/h
24.11.2017 11:00 12,2 C 34,2 C 7,7 C 11,4 C 16,2 C 78 % 1011,0 hPa 0,0 l/m 7,2 km/h SW 229 5 min 0,6 UV-I 8,5 C 11,7 C 8,5 km/h
24.11.2017 10:55 12,0 C 16,6 C 7,7 C 11,4 C 14,4 C 79 % 1011,0 hPa 0,0 l/m 6,6 km/h SW 229 0 min 0,5 UV-I 8,5 C 11,9 C 11,2 km/h
24.11.2017 10:50 11,8 C 11,7 C 7,7 C 11,2 C 14,8 C 79 % 1011,0 hPa 0,0 l/m 8,0 km/h S-SW 206 0 min 0,5 UV-I 8,3 C 10,7 C 12,2 km/h
24.11.2017 10:45 11,7 C 40,4 C 7,7 C 11,3 C 14,7 C 79 % 1011,0 hPa 0,0 l/m 9,0 km/h SW 229 5 min 0,4 UV-I 8,2 C 10,0 C 18,6 km/h
24.11.2017 10:40 11,5 C 7,5 C 7,6 C 11,1 C 13,8 C 79 % 1011,0 hPa 0,0 l/m 9,8 km/h W 274 0 min 0,5 UV-I 8,0 C 9,4 C 10,1 km/h
24.11.2017 10:35 11,4 C 28,4 C 7,6 C 11,1 C 13,7 C 79 % 1011,4 hPa 0,0 l/m 11,4 km/h S 184 5 min 0,4 UV-I 7,9 C 8,4 C 17,0 km/h
24.11.2017 10:30 11,3 C 7,6 C 7,6 C 10,9 C 13,3 C 80 % 1011,4 hPa 0,0 l/m 9,8 km/h S 184 0 min 0,4 UV-I 8,0 C 9,1 C 18,9 km/h
24.11.2017 10:25 11,1 C 10,0 C 7,6 C 10,9 C 12,2 C 80 % 1011,4 hPa 0,0 l/m 8,0 km/h S-SO 161 0 min 0,3 UV-I 7,8 C 10,0 C 10,6 km/h
24.11.2017 10:20 11,1 C 3,4 C 7,6 C 10,8 C 12,5 C 80 % 1011,4 hPa 0,0 l/m 7,7 km/h S 184 0 min 0,3 UV-I 7,8 C 10,2 C 13,0 km/h
24.11.2017 10:15 11,2 C 14,5 C 7,6 C 10,8 C 12,6 C 80 % 1011,2 hPa 0,0 l/m 8,2 km/h O-NO 71 0 min 0,3 UV-I 7,9 C 10,0 C 15,1 km/h
24.11.2017 10:10 11,1 C 1,2 C 7,5 C 10,9 C 12,2 C 80 % 1011,2 hPa 0,0 l/m 9,8 km/h S-SO 161 0 min 0,3 UV-I 7,8 C 8,9 C 8,2 km/h
24.11.2017 10:05 11,2 C 4,6 C 7,5 C 10,7 C 11,5 C 80 % 1011,2 hPa 0,0 l/m 9,0 km/h SW 229 0 min 0,2 UV-I 7,9 C 9,5 C 9,6 km/h
24.11.2017 10:00 11,1 C -4,5 C 7,5 C 10,7 C 11,2 C 80 % 1011,2 hPa 0,0 l/m 6,1 km/h S-SW 206 0 min 0,2 UV-I 7,8 C 11,1 C 18,3 km/h
24.11.2017 09:55 11,0 C -6,2 C 7,5 C 10,7 C 11,1 C 80 % 1011,2 hPa 0,0 l/m 7,2 km/h S 184 0 min 0,3 UV-I 7,7 C 10,4 C 36,1 km/h
24.11.2017 09:50 10,9 C 1,8 C 7,4 C 10,7 C 11,0 C 80 % 1011,2 hPa 0,0 l/m 9,0 km/h S-SO 161 0 min 0,2 UV-I 7,6 C 9,2 C 7,4 km/h
24.11.2017 09:45 10,8 C -3,0 C 7,4 C 10,6 C 10,7 C 80 % 1011,2 hPa 0,0 l/m 8,5 km/h S 184 0 min 0,2 UV-I 7,5 C 9,4 C 7,7 km/h
24.11.2017 09:40 10,7 C -5,1 C 7,4 C 10,5 C 10,8 C 80 % 1011,2 hPa 0,0 l/m 9,8 km/h S 184 0 min 0,2 UV-I 7,4 C 8,5 C 9,0 km/h
24.11.2017 09:35 10,8 C -5,7 C 7,4 C 10,5 C 11,3 C 80 % 1011,1 hPa 0,0 l/m 9,8 km/h O-NO 71 0 min 0,2 UV-I 7,5 C 8,6 C 22,6 km/h
24.11.2017 09:30 10,5 C -2,8 C 7,4 C 10,3 C 11,6 C 80 % 1011,1 hPa 0,0 l/m 8,0 km/h W-SW 251 0 min 0,2 UV-I 7,2 C 9,4 C 9,6 km/h
24.11.2017 09:25 10,3 C -1,8 C 7,3 C 10,3 C 11,6 C 80 % 1011,1 hPa 0,0 l/m 8,5 km/h S 184 0 min 0,2 UV-I 7,0 C 8,8 C 6,1 km/h
24.11.2017 09:20 10,1 C -1,3 C 7,3 C 10,0 C 11,4 C 81 % 1011,1 hPa 0,0 l/m 9,0 km/h W-SW 251 0 min 0,2 UV-I 7,0 C 8,3 C 3,5 km/h
24.11.2017 09:15 9,9 C -2,0 C 7,3 C 9,9 C 11,4 C 81 % 1010,8 hPa 0,0 l/m 8,8 km/h S-SO 161 0 min 0,2 UV-I 6,8 C 8,2 C 19,9 km/h
24.11.2017 09:10 9,5 C -1,9 C 7,3 C 9,7 C 12,0 C 82 % 1010,8 hPa 0,0 l/m 8,5 km/h S 184 0 min 0,2 UV-I 6,6 C 8,0 C 7,2 km/h
24.11.2017 09:05 9,3 C 10,0 C 7,3 C 9,6 C 12,0 C 82 % 1010,8 hPa 0,0 l/m 7,7 km/h S-SO 161 0 min 0,2 UV-I 6,4 C 8,3 C 3,5 km/h
24.11.2017 09:00 9,2 C 2,4 C 7,3 C 9,5 C 11,0 C 82 % 1010,8 hPa 0,0 l/m 5,3 km/h O-SO 116 0 min 0,2 UV-I 6,3 C 9,2 C 8,0 km/h
24.11.2017 08:55 9,1 C -2,6 C 7,3 C 9,5 C 11,0 C 82 % 1011,0 hPa 0,0 l/m 4,5 km/h N-NO 26 0 min 0,2 UV-I 6,2 C 9,1 C 2,9 km/h
24.11.2017 08:50 9,2 C -6,3 C 7,3 C 9,4 C 12,5 C 82 % 1011,0 hPa 0,0 l/m 6,9 km/h SW 229 0 min 0,2 UV-I 6,3 C 8,8 C 4,5 km/h
24.11.2017 08:45 9,1 C 26,7 C 7,3 C 9,5 C 13,4 C 83 % 1011,0 hPa 0,0 l/m 6,6 km/h S-SO 161 5 min 0,2 UV-I 6,4 C 9,0 C 7,4 km/h
24.11.2017 08:40 8,9 C 26,4 C 7,3 C 9,5 C 12,6 C 83 % 1011,0 hPa 0,0 l/m 5,3 km/h S 184 5 min 0,2 UV-I 6,2 C 8,9 C 8,8 km/h
24.11.2017 08:35 9,0 C 24,6 C 7,3 C 9,5 C 12,0 C 83 % 1010,6 hPa 0,0 l/m 5,6 km/h S 184 5 min 0,2 UV-I 6,3 C 9,0 C 4,5 km/h
24.11.2017 08:30 8,8 C 2,3 C 7,3 C 9,3 C 9,9 C 83 % 1010,6 hPa 0,0 l/m 4,5 km/h S 184 5 min 0,2 UV-I 6,1 C 8,8 C 6,9 km/h
24.11.2017 08:25 8,9 C -3,9 C 7,3 C 9,2 C 9,8 C 83 % 1010,6 hPa 0,0 l/m 4,0 km/h S-SW 206 0 min 0,2 UV-I 6,2 C 8,9 C 6,4 km/h
_ Min-Zeit 08:05 06:30 09:25 08:00 06:10 11:45 07:35 - 07:50 - - - 07:35 08:05 04:37 07:45
Minimum _ 8,5 C -18,0 C 7,3 C 9,1 C 8,1 C 75 % 1010,1 hPa - 0,8 km/h - - - 0,0 UV-I 5,8 C 7,6 C 0,0 km/h
_ Max-Zeit 11:40 10:45 11:45 11:45 11:10 08:45 00:52 11:45 11:35 - - 11:30 11:40 11:40 10:55 11:25
Maximum _ 12,8 C 40,4 C 8,0 C 12,0 C 19,3 C 83 % 1012,5 hPa 0,0 l/m 14,1 km/h
S-SO
- - 5 min 0,6 UV-I 8,7 C 11,9 C 37,7 km/h
O-NO
Durchschnitt _ 9,9 C -8,7 C 7,5 C 10,0 C 10,7 C 81 % 1011,3 hPa #0,0 l/m 6,9 km/h S - #1:05 h 0,3 UV-I 6,8 C 9,2 C 9,0 km/h